sensor_id;sensor_type;location;lat;lon;timestamp;P1;durP1;ratioP1;P2;durP2;ratioP2
35074;SDS011;21260;34.984;32.490;2023-04-25T00:00:49;3.58;;;2.42;;
35074;SDS011;21260;34.984;32.490;2023-04-25T00:03:17;3.22;;;2.40;;
35074;SDS011;21260;34.984;32.490;2023-04-25T00:05:44;2.97;;;2.33;;
35074;SDS011;21260;34.984;32.490;2023-04-25T00:08:10;2.95;;;2.30;;
35074;SDS011;21260;34.984;32.490;2023-04-25T00:10:38;3.22;;;2.70;;
35074;SDS011;21260;34.984;32.490;2023-04-25T00:13:04;3.70;;;2.55;;
35074;SDS011;21260;34.984;32.490;2023-04-25T00:15:31;3.03;;;2.33;;
35074;SDS011;21260;34.984;32.490;2023-04-25T00:17:57;4.45;;;2.42;;
35074;SDS011;21260;34.984;32.490;2023-04-25T00:20:23;4.18;;;2.28;;
35074;SDS011;21260;34.984;32.490;2023-04-25T00:22:50;3.67;;;2.20;;
35074;SDS011;21260;34.984;32.490;2023-04-25T00:25:18;3.40;;;2.43;;
35074;SDS011;21260;34.984;32.490;2023-04-25T00:27:44;3.92;;;2.30;;
35074;SDS011;21260;34.984;32.490;2023-04-25T00:30:11;3.05;;;2.30;;
35074;SDS011;21260;34.984;32.490;2023-04-25T00:32:38;4.13;;;2.20;;
35074;SDS011;21260;34.984;32.490;2023-04-25T00:35:04;2.63;;;2.38;;
35074;SDS011;21260;34.984;32.490;2023-04-25T00:37:31;3.08;;;2.33;;
35074;SDS011;21260;34.984;32.490;2023-04-25T00:39:58;3.83;;;2.40;;
35074;SDS011;21260;34.984;32.490;2023-04-25T00:42:25;3.67;;;2.25;;
35074;SDS011;21260;34.984;32.490;2023-04-25T00:44:52;4.05;;;2.35;;
35074;SDS011;21260;34.984;32.490;2023-04-25T00:47:18;4.18;;;2.20;;
35074;SDS011;21260;34.984;32.490;2023-04-25T00:49:45;4.13;;;2.60;;
35074;SDS011;21260;34.984;32.490;2023-04-25T00:52:12;4.57;;;2.30;;
35074;SDS011;21260;34.984;32.490;2023-04-25T00:54:38;3.92;;;2.40;;
35074;SDS011;21260;34.984;32.490;2023-04-25T00:57:05;3.20;;;2.25;;
35074;SDS011;21260;34.984;32.490;2023-04-25T00:59:31;4.18;;;2.65;;
35074;SDS011;21260;34.984;32.490;2023-04-25T01:01:59;4.93;;;2.40;;
35074;SDS011;21260;34.984;32.490;2023-04-25T01:04:27;4.00;;;2.43;;
35074;SDS011;21260;34.984;32.490;2023-04-25T01:06:53;3.55;;;2.60;;
35074;SDS011;21260;34.984;32.490;2023-04-25T01:09:20;3.35;;;2.42;;
35074;SDS011;21260;34.984;32.490;2023-04-25T01:11:49;4.43;;;2.50;;
35074;SDS011;21260;34.984;32.490;2023-04-25T01:14:15;4.57;;;2.80;;
35074;SDS011;21260;34.984;32.490;2023-04-25T01:16:42;3.58;;;2.30;;
35074;SDS011;21260;34.984;32.490;2023-04-25T01:19:10;3.60;;;2.65;;
35074;SDS011;21260;34.984;32.490;2023-04-25T01:21:37;5.03;;;2.40;;
35074;SDS011;21260;34.984;32.490;2023-04-25T01:24:04;3.65;;;2.65;;
35074;SDS011;21260;34.984;32.490;2023-04-25T01:26:31;5.00;;;2.27;;
35074;SDS011;21260;34.984;32.490;2023-04-25T01:28:58;4.82;;;2.58;;
35074;SDS011;21260;34.984;32.490;2023-04-25T01:31:25;4.78;;;2.70;;
35074;SDS011;21260;34.984;32.490;2023-04-25T01:33:53;4.97;;;2.55;;
35074;SDS011;21260;34.984;32.490;2023-04-25T01:36:19;3.17;;;2.40;;
35074;SDS011;21260;34.984;32.490;2023-04-25T01:38:47;3.55;;;2.28;;
35074;SDS011;21260;34.984;32.490;2023-04-25T01:41:14;5.07;;;2.38;;
35074;SDS011;21260;34.984;32.490;2023-04-25T01:43:42;5.20;;;2.47;;
35074;SDS011;21260;34.984;32.490;2023-04-25T01:46:08;4.47;;;2.40;;
35074;SDS011;21260;34.984;32.490;2023-04-25T01:48:36;3.88;;;2.55;;
35074;SDS011;21260;34.984;32.490;2023-04-25T01:51:03;3.33;;;2.50;;
35074;SDS011;21260;34.984;32.490;2023-04-25T01:53:29;5.10;;;2.80;;
35074;SDS011;21260;34.984;32.490;2023-04-25T01:55:56;3.72;;;2.50;;
35074;SDS011;21260;34.984;32.490;2023-04-25T01:58:22;4.25;;;2.67;;
35074;SDS011;21260;34.984;32.490;2023-04-25T02:00:48;3.50;;;2.70;;
35074;SDS011;21260;34.984;32.490;2023-04-25T02:03:14;4.45;;;2.60;;
35074;SDS011;21260;34.984;32.490;2023-04-25T02:05:40;5.18;;;2.60;;
35074;SDS011;21260;34.984;32.490;2023-04-25T02:08:07;3.72;;;2.30;;
35074;SDS011;21260;34.984;32.490;2023-04-25T02:10:35;3.72;;;2.65;;
35074;SDS011;21260;34.984;32.490;2023-04-25T02:13:02;3.58;;;2.67;;
35074;SDS011;21260;34.984;32.490;2023-04-25T02:15:30;4.78;;;2.88;;
35074;SDS011;21260;34.984;32.490;2023-04-25T02:17:56;3.87;;;2.50;;
35074;SDS011;21260;34.984;32.490;2023-04-25T02:20:25;3.50;;;2.50;;
35074;SDS011;21260;34.984;32.490;2023-04-25T02:22:52;4.18;;;2.63;;
35074;SDS011;21260;34.984;32.490;2023-04-25T02:25:19;3.03;;;2.72;;
35074;SDS011;21260;34.984;32.490;2023-04-25T02:27:46;3.10;;;2.65;;
35074;SDS011;21260;34.984;32.490;2023-04-25T02:30:13;2.97;;;2.30;;
35074;SDS011;21260;34.984;32.490;2023-04-25T02:32:39;4.00;;;2.72;;
35074;SDS011;21260;34.984;32.490;2023-04-25T02:35:06;3.30;;;2.67;;
35074;SDS011;21260;34.984;32.490;2023-04-25T02:37:34;2.88;;;2.33;;
35074;SDS011;21260;34.984;32.490;2023-04-25T02:40:01;4.00;;;2.50;;
35074;SDS011;21260;34.984;32.490;2023-04-25T02:42:29;4.05;;;2.75;;
35074;SDS011;21260;34.984;32.490;2023-04-25T02:44:55;3.72;;;2.60;;
35074;SDS011;21260;34.984;32.490;2023-04-25T02:47:22;5.10;;;2.67;;
35074;SDS011;21260;34.984;32.490;2023-04-25T02:49:48;3.57;;;2.60;;
35074;SDS011;21260;34.984;32.490;2023-04-25T02:52:15;3.17;;;2.42;;
35074;SDS011;21260;34.984;32.490;2023-04-25T02:54:41;3.37;;;2.50;;
35074;SDS011;21260;34.984;32.490;2023-04-25T02:57:07;3.88;;;2.55;;
35074;SDS011;21260;34.984;32.490;2023-04-25T02:59:33;5.28;;;2.60;;
35074;SDS011;21260;34.984;32.490;2023-04-25T03:02:00;4.25;;;2.38;;
35074;SDS011;21260;34.984;32.490;2023-04-25T03:04:26;4.15;;;2.60;;
35074;SDS011;21260;34.984;32.490;2023-04-25T03:06:53;3.72;;;2.58;;
35074;SDS011;21260;34.984;32.490;2023-04-25T03:09:19;3.92;;;2.42;;
35074;SDS011;21260;34.984;32.490;2023-04-25T03:11:45;3.30;;;2.40;;
35074;SDS011;21260;34.984;32.490;2023-04-25T03:14:12;4.35;;;2.53;;
35074;SDS011;21260;34.984;32.490;2023-04-25T03:16:39;3.20;;;2.38;;
35074;SDS011;21260;34.984;32.490;2023-04-25T03:19:06;3.88;;;2.50;;
35074;SDS011;21260;34.984;32.490;2023-04-25T03:21:32;3.65;;;2.40;;
35074;SDS011;21260;34.984;32.490;2023-04-25T03:24:01;3.65;;;2.60;;
35074;SDS011;21260;34.984;32.490;2023-04-25T03:26:29;5.28;;;2.42;;
35074;SDS011;21260;34.984;32.490;2023-04-25T03:28:56;3.85;;;2.38;;
35074;SDS011;21260;34.984;32.490;2023-04-25T03:31:22;3.05;;;2.42;;
35074;SDS011;21260;34.984;32.490;2023-04-25T03:33:48;4.63;;;2.43;;
35074;SDS011;21260;34.984;32.490;2023-04-25T03:36:14;3.33;;;2.55;;
35074;SDS011;21260;34.984;32.490;2023-04-25T03:38:41;3.58;;;2.63;;
35074;SDS011;21260;34.984;32.490;2023-04-25T03:41:07;4.78;;;2.60;;
35074;SDS011;21260;34.984;32.490;2023-04-25T03:43:33;3.60;;;2.67;;
35074;SDS011;21260;34.984;32.490;2023-04-25T03:45:59;3.42;;;2.60;;
35074;SDS011;21260;34.984;32.490;2023-04-25T03:48:26;3.20;;;2.40;;
35074;SDS011;21260;34.984;32.490;2023-04-25T03:50:53;4.43;;;2.58;;
35074;SDS011;21260;34.984;32.490;2023-04-25T03:53:20;3.10;;;2.30;;
35074;SDS011;21260;34.984;32.490;2023-04-25T03:55:46;3.60;;;2.45;;
35074;SDS011;21260;34.984;32.490;2023-04-25T03:58:12;3.72;;;2.38;;
35074;SDS011;21260;34.984;32.490;2023-04-25T04:00:39;2.40;;;2.20;;
35074;SDS011;21260;34.984;32.490;2023-04-25T04:03:05;3.20;;;2.50;;
35074;SDS011;21260;34.984;32.490;2023-04-25T04:05:31;3.28;;;2.22;;
35074;SDS011;21260;34.984;32.490;2023-04-25T04:07:57;4.28;;;2.20;;
35074;SDS011;21260;34.984;32.490;2023-04-25T04:10:24;2.88;;;2.22;;
35074;SDS011;21260;34.984;32.490;2023-04-25T04:12:51;5.93;;;2.30;;
35074;SDS011;21260;34.984;32.490;2023-04-25T04:15:17;3.72;;;2.25;;
35074;SDS011;21260;34.984;32.490;2023-04-25T04:17:43;3.58;;;2.20;;
35074;SDS011;21260;34.984;32.490;2023-04-25T04:20:10;3.13;;;2.28;;
35074;SDS011;21260;34.984;32.490;2023-04-25T04:22:36;3.65;;;2.50;;
35074;SDS011;21260;34.984;32.490;2023-04-25T04:25:02;2.47;;;2.27;;
35074;SDS011;21260;34.984;32.490;2023-04-25T04:27:31;2.80;;;2.30;;
35074;SDS011;21260;34.984;32.490;2023-04-25T04:29:57;2.90;;;2.50;;
35074;SDS011;21260;34.984;32.490;2023-04-25T04:32:23;3.65;;;2.42;;
35074;SDS011;21260;34.984;32.490;2023-04-25T04:34:50;3.90;;;2.37;;
35074;SDS011;21260;34.984;32.490;2023-04-25T04:37:17;3.03;;;2.60;;
35074;SDS011;21260;34.984;32.490;2023-04-25T04:39:44;2.78;;;2.35;;
35074;SDS011;21260;34.984;32.490;2023-04-25T04:42:11;3.00;;;2.50;;
35074;SDS011;21260;34.984;32.490;2023-04-25T04:44:38;3.70;;;2.40;;
35074;SDS011;21260;34.984;32.490;2023-04-25T04:47:04;4.53;;;2.42;;
35074;SDS011;21260;34.984;32.490;2023-04-25T04:49:31;3.80;;;2.53;;
35074;SDS011;21260;34.984;32.490;2023-04-25T04:51:58;3.78;;;2.33;;
35074;SDS011;21260;34.984;32.490;2023-04-25T04:54:25;3.00;;;2.20;;
35074;SDS011;21260;34.984;32.490;2023-04-25T04:56:52;3.42;;;2.60;;
35074;SDS011;21260;34.984;32.490;2023-04-25T04:59:18;2.97;;;2.60;;
35074;SDS011;21260;34.984;32.490;2023-04-25T05:01:44;2.50;;;2.30;;
35074;SDS011;21260;34.984;32.490;2023-04-25T05:04:11;2.97;;;2.40;;
35074;SDS011;21260;34.984;32.490;2023-04-25T05:06:38;5.43;;;2.70;;
35074;SDS011;21260;34.984;32.490;2023-04-25T05:09:04;3.50;;;2.75;;
35074;SDS011;21260;34.984;32.490;2023-04-25T05:11:30;4.43;;;2.60;;
35074;SDS011;21260;34.984;32.490;2023-04-25T05:13:56;3.78;;;2.55;;
35074;SDS011;21260;34.984;32.490;2023-04-25T05:16:22;3.97;;;2.67;;
35074;SDS011;21260;34.984;32.490;2023-04-25T05:18:49;4.43;;;2.47;;
35074;SDS011;21260;34.984;32.490;2023-04-25T05:21:15;3.65;;;2.40;;
35074;SDS011;21260;34.984;32.490;2023-04-25T05:23:41;2.70;;;2.35;;
35074;SDS011;21260;34.984;32.490;2023-04-25T05:26:07;3.15;;;1.98;;
35074;SDS011;21260;34.984;32.490;2023-04-25T05:28:41;3.00;;;2.10;;
35074;SDS011;21260;34.984;32.490;2023-04-25T05:31:08;3.55;;;2.10;;
35074;SDS011;21260;34.984;32.490;2023-04-25T05:33:35;2.97;;;2.30;;
35074;SDS011;21260;34.984;32.490;2023-04-25T05:36:01;3.30;;;2.37;;
35074;SDS011;21260;34.984;32.490;2023-04-25T05:38:28;2.92;;;2.00;;
35074;SDS011;21260;34.984;32.490;2023-04-25T05:40:54;2.80;;;2.20;;
35074;SDS011;21260;34.984;32.490;2023-04-25T05:43:21;3.90;;;2.20;;
35074;SDS011;21260;34.984;32.490;2023-04-25T05:45:47;4.00;;;2.20;;
35074;SDS011;21260;34.984;32.490;2023-04-25T05:48:13;3.03;;;2.20;;
35074;SDS011;21260;34.984;32.490;2023-04-25T05:50:39;3.03;;;2.00;;
35074;SDS011;21260;34.984;32.490;2023-04-25T05:53:05;3.80;;;2.40;;
35074;SDS011;21260;34.984;32.490;2023-04-25T05:55:32;2.88;;;2.15;;
35074;SDS011;21260;34.984;32.490;2023-04-25T05:57:58;3.53;;;2.17;;
35074;SDS011;21260;34.984;32.490;2023-04-25T06:00:24;3.70;;;2.10;;
35074;SDS011;21260;34.984;32.490;2023-04-25T06:02:50;2.50;;;2.08;;
35074;SDS011;21260;34.984;32.490;2023-04-25T06:05:17;3.05;;;2.00;;
35074;SDS011;21260;34.984;32.490;2023-04-25T06:07:43;2.17;;;1.90;;
35074;SDS011;21260;34.984;32.490;2023-04-25T06:10:09;3.30;;;2.10;;
35074;SDS011;21260;34.984;32.490;2023-04-25T06:12:35;2.60;;;2.00;;
35074;SDS011;21260;34.984;32.490;2023-04-25T06:15:03;2.50;;;1.90;;
35074;SDS011;21260;34.984;32.490;2023-04-25T06:17:31;2.80;;;2.00;;
35074;SDS011;21260;34.984;32.490;2023-04-25T06:19:57;3.88;;;2.00;;
35074;SDS011;21260;34.984;32.490;2023-04-25T06:22:24;3.70;;;2.30;;
35074;SDS011;21260;34.984;32.490;2023-04-25T06:24:51;3.70;;;2.20;;
35074;SDS011;21260;34.984;32.490;2023-04-25T06:27:17;4.00;;;2.40;;
35074;SDS011;21260;34.984;32.490;2023-04-25T06:29:43;2.90;;;2.00;;
35074;SDS011;21260;34.984;32.490;2023-04-25T06:32:09;4.10;;;2.35;;
35074;SDS011;21260;34.984;32.490;2023-04-25T06:34:35;2.80;;;2.20;;
35074;SDS011;21260;34.984;32.490;2023-04-25T06:37:02;3.35;;;2.33;;
35074;SDS011;21260;34.984;32.490;2023-04-25T06:39:28;3.87;;;2.27;;
35074;SDS011;21260;34.984;32.490;2023-04-25T06:41:54;4.03;;;2.20;;
35074;SDS011;21260;34.984;32.490;2023-04-25T06:44:20;3.10;;;2.08;;
35074;SDS011;21260;34.984;32.490;2023-04-25T06:46:48;3.80;;;2.40;;
35074;SDS011;21260;34.984;32.490;2023-04-25T06:49:14;3.80;;;2.42;;
35074;SDS011;21260;34.984;32.490;2023-04-25T06:51:40;3.95;;;2.10;;
35074;SDS011;21260;34.984;32.490;2023-04-25T06:54:07;2.90;;;2.38;;
35074;SDS011;21260;34.984;32.490;2023-04-25T06:56:33;5.37;;;2.43;;
35074;SDS011;21260;34.984;32.490;2023-04-25T06:58:59;3.58;;;2.28;;
35074;SDS011;21260;34.984;32.490;2023-04-25T07:01:26;3.97;;;2.60;;
35074;SDS011;21260;34.984;32.490;2023-04-25T07:03:52;4.10;;;2.28;;
35074;SDS011;21260;34.984;32.490;2023-04-25T07:06:18;4.07;;;2.45;;
35074;SDS011;21260;34.984;32.490;2023-04-25T07:08:44;3.38;;;2.17;;
35074;SDS011;21260;34.984;32.490;2023-04-25T07:11:10;2.97;;;2.15;;
35074;SDS011;21260;34.984;32.490;2023-04-25T07:13:36;3.92;;;2.50;;
35074;SDS011;21260;34.984;32.490;2023-04-25T07:16:03;2.95;;;2.30;;
35074;SDS011;21260;34.984;32.490;2023-04-25T07:18:30;4.22;;;2.30;;
35074;SDS011;21260;34.984;32.490;2023-04-25T07:20:56;3.03;;;1.90;;
35074;SDS011;21260;34.984;32.490;2023-04-25T07:23:22;3.00;;;2.10;;
35074;SDS011;21260;34.984;32.490;2023-04-25T07:25:48;2.50;;;2.10;;
35074;SDS011;21260;34.984;32.490;2023-04-25T07:28:15;3.08;;;2.20;;
35074;SDS011;21260;34.984;32.490;2023-04-25T07:30:41;3.15;;;2.17;;
35074;SDS011;21260;34.984;32.490;2023-04-25T07:33:07;2.60;;;2.20;;
35074;SDS011;21260;34.984;32.490;2023-04-25T07:35:33;3.50;;;2.20;;
35074;SDS011;21260;34.984;32.490;2023-04-25T07:38:00;3.22;;;2.17;;
35074;SDS011;21260;34.984;32.490;2023-04-25T07:40:28;4.65;;;2.20;;
35074;SDS011;21260;34.984;32.490;2023-04-25T07:42:55;3.22;;;1.80;;
35074;SDS011;21260;34.984;32.490;2023-04-25T07:45:21;2.67;;;2.10;;
35074;SDS011;21260;34.984;32.490;2023-04-25T07:47:48;3.88;;;2.28;;
35074;SDS011;21260;34.984;32.490;2023-04-25T07:50:15;2.83;;;2.10;;
35074;SDS011;21260;34.984;32.490;2023-04-25T07:52:41;3.50;;;2.22;;
35074;SDS011;21260;34.984;32.490;2023-04-25T07:55:07;4.45;;;2.25;;
35074;SDS011;21260;34.984;32.490;2023-04-25T07:57:34;4.70;;;2.30;;
35074;SDS011;21260;34.984;32.490;2023-04-25T08:00:00;3.92;;;2.30;;
35074;SDS011;21260;34.984;32.490;2023-04-25T08:02:27;4.95;;;2.40;;
35074;SDS011;21260;34.984;32.490;2023-04-25T08:04:53;6.40;;;2.40;;
35074;SDS011;21260;34.984;32.490;2023-04-25T08:07:20;3.70;;;2.22;;
35074;SDS011;21260;34.984;32.490;2023-04-25T08:09:46;3.88;;;2.20;;
35074;SDS011;21260;34.984;32.490;2023-04-25T08:12:12;3.73;;;2.10;;
35074;SDS011;21260;34.984;32.490;2023-04-25T08:14:38;4.07;;;2.28;;
35074;SDS011;21260;34.984;32.490;2023-04-25T08:17:05;4.22;;;2.30;;
35074;SDS011;21260;34.984;32.490;2023-04-25T08:19:31;3.50;;;2.40;;
35074;SDS011;21260;34.984;32.490;2023-04-25T08:21:57;7.68;;;2.63;;
35074;SDS011;21260;34.984;32.490;2023-04-25T08:24:23;3.85;;;2.30;;
35074;SDS011;21260;34.984;32.490;2023-04-25T08:26:50;4.45;;;2.30;;
35074;SDS011;21260;34.984;32.490;2023-04-25T08:29:17;4.77;;;2.40;;
35074;SDS011;21260;34.984;32.490;2023-04-25T08:31:43;6.10;;;2.58;;
35074;SDS011;21260;34.984;32.490;2023-04-25T08:34:09;5.53;;;2.30;;
35074;SDS011;21260;34.984;32.490;2023-04-25T08:36:36;5.20;;;2.38;;
35074;SDS011;21260;34.984;32.490;2023-04-25T08:39:02;4.65;;;2.50;;
35074;SDS011;21260;34.984;32.490;2023-04-25T08:41:28;5.68;;;2.58;;
35074;SDS011;21260;34.984;32.490;2023-04-25T08:43:55;6.70;;;2.50;;
35074;SDS011;21260;34.984;32.490;2023-04-25T08:46:25;7.00;;;2.25;;
35074;SDS011;21260;34.984;32.490;2023-04-25T08:48:52;3.47;;;2.10;;
35074;SDS011;21260;34.984;32.490;2023-04-25T08:51:25;6.78;;;2.30;;
35074;SDS011;21260;34.984;32.490;2023-04-25T08:53:56;6.70;;;2.30;;
35074;SDS011;21260;34.984;32.490;2023-04-25T08:56:36;7.43;;;2.50;;
35074;SDS011;21260;34.984;32.490;2023-04-25T08:59:11;6.25;;;2.67;;
35074;SDS011;21260;34.984;32.490;2023-04-25T09:01:38;4.68;;;2.20;;
35074;SDS011;21260;34.984;32.490;2023-04-25T09:04:05;6.28;;;2.20;;
35074;SDS011;21260;34.984;32.490;2023-04-25T09:06:31;5.20;;;2.40;;
35074;SDS011;21260;34.984;32.490;2023-04-25T09:09:03;4.93;;;2.38;;
35074;SDS011;21260;34.984;32.490;2023-04-25T09:11:33;5.22;;;2.45;;
35074;SDS011;21260;34.984;32.490;2023-04-25T09:14:10;4.70;;;2.30;;
35074;SDS011;21260;34.984;32.490;2023-04-25T09:19:34;4.90;;;2.20;;
35074;SDS011;21260;34.984;32.490;2023-04-25T09:22:04;4.32;;;2.13;;
35074;SDS011;21260;34.984;32.490;2023-04-25T09:24:44;4.07;;;2.08;;
35074;SDS011;21260;34.984;32.490;2023-04-25T09:27:13;3.30;;;1.90;;
35074;SDS011;21260;34.984;32.490;2023-04-25T09:29:45;6.68;;;2.17;;
35074;SDS011;21260;34.984;32.490;2023-04-25T09:32:15;4.07;;;2.10;;
35074;SDS011;21260;34.984;32.490;2023-04-25T09:34:50;2.95;;;1.73;;
35074;SDS011;21260;34.984;32.490;2023-04-25T09:37:19;3.70;;;2.20;;
35074;SDS011;21260;34.984;32.490;2023-04-25T09:39:56;6.25;;;2.60;;
35074;SDS011;21260;34.984;32.490;2023-04-25T09:42:26;7.97;;;2.90;;
35074;SDS011;21260;34.984;32.490;2023-04-25T09:44:54;4.45;;;2.38;;
35074;SDS011;21260;34.984;32.490;2023-04-25T09:47:25;7.13;;;2.63;;
35074;SDS011;21260;34.984;32.490;2023-04-25T09:49:53;7.57;;;3.03;;
35074;SDS011;21260;34.984;32.490;2023-04-25T09:52:21;6.07;;;3.05;;
35074;SDS011;21260;34.984;32.490;2023-04-25T09:54:49;6.55;;;2.75;;
35074;SDS011;21260;34.984;32.490;2023-04-25T09:57:18;6.55;;;2.90;;
35074;SDS011;21260;34.984;32.490;2023-04-25T09:59:46;8.07;;;2.58;;
35074;SDS011;21260;34.984;32.490;2023-04-25T10:02:15;6.90;;;2.90;;
35074;SDS011;21260;34.984;32.490;2023-04-25T10:04:48;6.32;;;2.80;;
35074;SDS011;21260;34.984;32.490;2023-04-25T10:07:18;7.60;;;2.90;;
35074;SDS011;21260;34.984;32.490;2023-04-25T10:09:49;7.45;;;2.90;;
35074;SDS011;21260;34.984;32.490;2023-04-25T10:12:24;6.90;;;2.88;;
35074;SDS011;21260;34.984;32.490;2023-04-25T10:14:52;6.50;;;2.70;;
35074;SDS011;21260;34.984;32.490;2023-04-25T10:17:19;6.97;;;2.55;;
35074;SDS011;21260;34.984;32.490;2023-04-25T10:19:48;7.55;;;2.90;;
35074;SDS011;21260;34.984;32.490;2023-04-25T10:22:17;9.00;;;2.90;;
35074;SDS011;21260;34.984;32.490;2023-04-25T10:25:02;9.27;;;2.83;;
35074;SDS011;21260;34.984;32.490;2023-04-25T10:27:30;11.30;;;3.20;;
35074;SDS011;21260;34.984;32.490;2023-04-25T10:30:03;6.90;;;2.90;;
35074;SDS011;21260;34.984;32.490;2023-04-25T10:32:36;8.10;;;2.80;;
35074;SDS011;21260;34.984;32.490;2023-04-25T10:35:16;6.57;;;2.60;;
35074;SDS011;21260;34.984;32.490;2023-04-25T10:38:04;7.13;;;2.63;;
35074;SDS011;21260;34.984;32.490;2023-04-25T10:40:34;7.03;;;2.65;;
35074;SDS011;21260;34.984;32.490;2023-04-25T10:46:23;8.63;;;2.75;;
35074;SDS011;21260;34.984;32.490;2023-04-25T10:48:57;9.50;;;3.00;;
35074;SDS011;21260;34.984;32.490;2023-04-25T10:51:27;8.05;;;2.67;;
35074;SDS011;21260;34.984;32.490;2023-04-25T10:54:04;5.72;;;2.53;;
35074;SDS011;21260;34.984;32.490;2023-04-25T10:59:09;8.35;;;2.90;;
35074;SDS011;21260;34.984;32.490;2023-04-25T11:01:40;7.97;;;2.78;;
35074;SDS011;21260;34.984;32.490;2023-04-25T11:04:28;9.02;;;2.80;;
35074;SDS011;21260;34.984;32.490;2023-04-25T11:10:03;5.70;;;2.90;;
35074;SDS011;21260;34.984;32.490;2023-04-25T11:12:31;6.22;;;2.42;;
35074;SDS011;21260;34.984;32.490;2023-04-25T11:15:04;8.45;;;3.50;;
35074;SDS011;21260;34.984;32.490;2023-04-25T11:17:32;7.00;;;3.60;;
35074;SDS011;21260;34.984;32.490;2023-04-25T11:20:00;6.72;;;3.00;;
35074;SDS011;21260;34.984;32.490;2023-04-25T11:22:31;7.00;;;2.80;;
35074;SDS011;21260;34.984;32.490;2023-04-25T11:25:04;9.65;;;4.15;;
35074;SDS011;21260;34.984;32.490;2023-04-25T11:27:31;5.85;;;3.13;;
35074;SDS011;21260;34.984;32.490;2023-04-25T11:29:58;6.95;;;3.05;;
35074;SDS011;21260;34.984;32.490;2023-04-25T11:32:24;5.70;;;3.00;;
35074;SDS011;21260;34.984;32.490;2023-04-25T11:34:52;6.88;;;3.28;;
35074;SDS011;21260;34.984;32.490;2023-04-25T11:37:23;7.45;;;3.40;;
35074;SDS011;21260;34.984;32.490;2023-04-25T11:39:50;5.70;;;2.50;;
35074;SDS011;21260;34.984;32.490;2023-04-25T11:42:17;3.90;;;2.00;;
35074;SDS011;21260;34.984;32.490;2023-04-25T11:44:45;5.75;;;2.30;;
35074;SDS011;21260;34.984;32.490;2023-04-25T11:47:12;3.70;;;2.33;;
35074;SDS011;21260;34.984;32.490;2023-04-25T11:49:38;8.55;;;4.20;;
35074;SDS011;21260;34.984;32.490;2023-04-25T11:52:06;8.05;;;2.90;;
35074;SDS011;21260;34.984;32.490;2023-04-25T11:54:34;7.10;;;2.90;;
35074;SDS011;21260;34.984;32.490;2023-04-25T11:57:04;4.38;;;2.00;;
35074;SDS011;21260;34.984;32.490;2023-04-25T11:59:31;5.10;;;2.75;;
35074;SDS011;21260;34.984;32.490;2023-04-25T12:01:57;6.68;;;2.20;;
35074;SDS011;21260;34.984;32.490;2023-04-25T12:04:26;4.37;;;2.03;;
35074;SDS011;21260;34.984;32.490;2023-04-25T12:06:57;6.18;;;2.35;;
35074;SDS011;21260;34.984;32.490;2023-04-25T12:09:29;5.90;;;2.33;;
35074;SDS011;21260;34.984;32.490;2023-04-25T12:11:58;4.75;;;2.17;;
35074;SDS011;21260;34.984;32.490;2023-04-25T12:14:33;10.67;;;5.60;;
35074;SDS011;21260;34.984;32.490;2023-04-25T12:17:01;9.00;;;4.80;;
35074;SDS011;21260;34.984;32.490;2023-04-25T12:19:34;6.40;;;2.93;;
35074;SDS011;21260;34.984;32.490;2023-04-25T12:22:02;5.25;;;2.40;;
35074;SDS011;21260;34.984;32.490;2023-04-25T12:24:44;11.98;;;5.82;;
35074;SDS011;21260;34.984;32.490;2023-04-25T12:27:10;8.07;;;3.15;;
35074;SDS011;21260;34.984;32.490;2023-04-25T12:29:49;6.38;;;3.08;;
35074;SDS011;21260;34.984;32.490;2023-04-25T12:32:21;8.73;;;3.35;;
35074;SDS011;21260;34.984;32.490;2023-04-25T12:34:47;5.78;;;3.38;;
35074;SDS011;21260;34.984;32.490;2023-04-25T12:37:14;6.77;;;2.53;;
35074;SDS011;21260;34.984;32.490;2023-04-25T12:39:40;5.72;;;2.38;;
35074;SDS011;21260;34.984;32.490;2023-04-25T12:42:07;4.72;;;1.98;;
35074;SDS011;21260;34.984;32.490;2023-04-25T12:44:36;2.97;;;1.83;;
35074;SDS011;21260;34.984;32.490;2023-04-25T12:47:03;4.63;;;1.90;;
35074;SDS011;21260;34.984;32.490;2023-04-25T12:49:30;5.17;;;1.90;;
35074;SDS011;21260;34.984;32.490;2023-04-25T12:51:57;3.67;;;1.70;;
35074;SDS011;21260;34.984;32.490;2023-04-25T12:54:24;4.45;;;1.88;;
35074;SDS011;21260;34.984;32.490;2023-04-25T12:56:51;2.90;;;1.70;;
35074;SDS011;21260;34.984;32.490;2023-04-25T12:59:17;5.97;;;1.80;;
35074;SDS011;21260;34.984;32.490;2023-04-25T13:01:45;4.13;;;1.70;;
35074;SDS011;21260;34.984;32.490;2023-04-25T13:04:12;4.22;;;1.80;;
35074;SDS011;21260;34.984;32.490;2023-04-25T13:06:38;5.07;;;1.70;;
35074;SDS011;21260;34.984;32.490;2023-04-25T13:09:04;4.53;;;1.80;;
35074;SDS011;21260;34.984;32.490;2023-04-25T13:11:31;3.70;;;1.67;;
35074;SDS011;21260;34.984;32.490;2023-04-25T13:13:58;3.90;;;1.88;;
35074;SDS011;21260;34.984;32.490;2023-04-25T13:16:24;4.78;;;1.80;;
35074;SDS011;21260;34.984;32.490;2023-04-25T13:18:50;2.92;;;1.80;;
35074;SDS011;21260;34.984;32.490;2023-04-25T13:21:17;3.73;;;1.70;;
35074;SDS011;21260;34.984;32.490;2023-04-25T13:23:43;3.27;;;1.70;;
35074;SDS011;21260;34.984;32.490;2023-04-25T13:26:11;4.53;;;1.77;;
35074;SDS011;21260;34.984;32.490;2023-04-25T13:28:37;4.15;;;1.80;;
35074;SDS011;21260;34.984;32.490;2023-04-25T13:31:05;4.18;;;1.80;;
35074;SDS011;21260;34.984;32.490;2023-04-25T13:33:31;5.13;;;1.90;;
35074;SDS011;21260;34.984;32.490;2023-04-25T13:36:00;7.13;;;2.20;;
35074;SDS011;21260;34.984;32.490;2023-04-25T13:38:26;5.57;;;2.00;;
35074;SDS011;21260;34.984;32.490;2023-04-25T13:40:53;4.80;;;1.80;;
35074;SDS011;21260;34.984;32.490;2023-04-25T13:43:19;4.47;;;1.95;;
35074;SDS011;21260;34.984;32.490;2023-04-25T13:45:49;11.55;;;2.30;;
35074;SDS011;21260;34.984;32.490;2023-04-25T13:48:17;8.55;;;2.20;;
35074;SDS011;21260;34.984;32.490;2023-04-25T13:50:45;6.10;;;2.17;;
35074;SDS011;21260;34.984;32.490;2023-04-25T13:53:11;5.50;;;2.17;;
35074;SDS011;21260;34.984;32.490;2023-04-25T13:55:38;8.68;;;2.10;;
35074;SDS011;21260;34.984;32.490;2023-04-25T13:58:04;3.78;;;1.83;;
35074;SDS011;21260;34.984;32.490;2023-04-25T14:00:38;4.25;;;1.80;;
35074;SDS011;21260;34.984;32.490;2023-04-25T14:03:08;4.95;;;1.70;;
35074;SDS011;21260;34.984;32.490;2023-04-25T14:05:35;5.38;;;1.80;;
35074;SDS011;21260;34.984;32.490;2023-04-25T14:08:05;4.40;;;1.80;;
35074;SDS011;21260;34.984;32.490;2023-04-25T14:10:33;8.65;;;1.92;;
35074;SDS011;21260;34.984;32.490;2023-04-25T14:13:00;3.75;;;1.80;;
35074;SDS011;21260;34.984;32.490;2023-04-25T14:15:28;4.40;;;1.87;;
35074;SDS011;21260;34.984;32.490;2023-04-25T14:17:56;3.38;;;1.70;;
35074;SDS011;21260;34.984;32.490;2023-04-25T14:20:23;3.75;;;1.80;;
35074;SDS011;21260;34.984;32.490;2023-04-25T14:22:49;5.10;;;2.00;;
35074;SDS011;21260;34.984;32.490;2023-04-25T14:25:17;6.68;;;2.03;;
35074;SDS011;21260;34.984;32.490;2023-04-25T14:27:43;7.80;;;2.08;;
35074;SDS011;21260;34.984;32.490;2023-04-25T14:30:12;5.07;;;1.90;;
35074;SDS011;21260;34.984;32.490;2023-04-25T14:32:38;5.83;;;2.30;;
35074;SDS011;21260;34.984;32.490;2023-04-25T14:35:05;5.88;;;2.00;;
35074;SDS011;21260;34.984;32.490;2023-04-25T14:37:32;4.85;;;2.10;;
35074;SDS011;21260;34.984;32.490;2023-04-25T14:39:58;4.85;;;1.95;;
35074;SDS011;21260;34.984;32.490;2023-04-25T14:42:24;4.72;;;2.05;;
35074;SDS011;21260;34.984;32.490;2023-04-25T14:44:51;6.50;;;2.25;;
35074;SDS011;21260;34.984;32.490;2023-04-25T14:47:17;6.50;;;2.25;;